Thursday, July 19, 2018, 5:32 AM GMT
Back to Local

CYYY, Mont Joli, Que.

Location: , , Canada Lat: 48.6
Local Time: 5:32 AM GMT ( 5:32 GMT) Lon: -68.217
Time Zone: GMT Elev: 157 ft

Show me the last for .
Show Coded

Time T Td Feel RH Dir Speed Gust Alt SLP Vis Weather Sky Remarks
2018-07-19 05:00 57 46 - 67 230° 10 - 29.90 29.91 30 CLR None
2018-07-19 04:00 59 46 - 62 210° 9 - 29.89 29.90 30 CLR None
2018-07-19 03:00 61 46 - 59 210° 9 - 29.89 29.90 30 CLR None
2018-07-19 02:00 59 46 - 62 190° 8 - 29.89 29.89 30 FEW060 None
2018-07-19 01:00 59 48 - 67 170° 5 - 29.88 29.88 30 FEW060 None
2018-07-19 00:00 63 48 - 59 220° 6 - 29.87 29.88 30 FEW060 None
2018-07-18 23:00 64 48 - 55 240° 5 - 29.86 29.87 30 FEW060 None
2018-07-18 22:00 64 48 - 55 260° 7 - 29.85 29.86 30 FEW040 None
2018-07-18 21:00 64 48 - 55 270° 10 - 29.85 29.85 30 FEW035 None
2018-07-18 20:00 66 45 - 45 270° 17 - 29.84 29.84 30 FEW040 None
2018-07-18 19:00 68 45 - 42 260° 13 18 29.82 29.83 30 FEW040 None
2018-07-18 18:00 68 45 - 42 260° 13 18 29.82 29.82 30 FEW040 None
2018-07-18 17:00 66 45 - 45 250° 16 - 29.82 29.82 30 FEW030 FEW035 None
2018-07-18 16:00 64 46 - 52 250° 15 22 29.82 29.82 30 FEW025 FEW035 None
2018-07-18 15:00 63 46 - 55 270° 16 - 29.81 29.82 30 FEW035 None
2018-07-18 14:00 63 50 - 63 250° 14 - 29.81 29.81 30 BKN040 None
2018-07-18 13:00 55 50 - 82 270° 7 - 29.80 29.80 30 FEW020 BKN028 BKN240 None
2018-07-18 12:00 55 52 - 87 260° 9 - 29.79 29.80 30 FEW022 BKN030 BKN240 None
2018-07-18 11:00 57 52 - 82 260° 10 18 29.77 29.78 30 BKN023 None
2018-07-18 10:00 57 54 - 87 230° 10 - 29.75 29.76 30 BKN028 None
2018-07-18 09:00 59 55 - 87 240° 12 - 29.73 29.74 30 BKN028 BKN052 None
2018-07-18 08:00 59 55 - 87 230° 8 - 29.72 29.72 15 SCT052 None
2018-07-18 07:00 61 57 - 87 250° 10 - 29.69 29.70 15 SCT052 None
2018-07-18 06:00 63 61 - 93 240° 8 - 29.67 29.67 15 CLR None

Support USWX by starting your Amazon purchase here.